Time;durP1;ratioP1;P1;durP2;ratioP2;P2;SDS_P1;SDS_P2;PMS_P1;PMS_P2;Temp;Humidity;BMP_temperature;BMP_pressure;BME280_temperature;BME280_humidity;BME280_pressure;Samples;Min_cycle;Max_cycle;Signal;HPM_P1;HPM_P2
2022/01/21 00:01:30;;;;;;;9.25;2.35;;;;;;;-0.64;92.72;103337.06;5010087;28;20635;-77
2022/01/21 00:03:56;;;;;;;14.48;2.70;;;;;;;-0.63;92.50;103329.94;5009995;28;20030;-76
2022/01/21 00:06:22;;;;;;;15.68;2.20;;;;;;;-0.66;92.61;103329.88;5011532;28;20029;-76
2022/01/21 00:08:48;;;;;;;8.40;2.22;;;;;;;-0.70;92.03;103333.38;5014771;28;20025;-77
2022/01/21 00:11:15;;;;;;;11.10;2.67;;;;;;;-0.71;92.85;103326.25;5015184;28;20025;-77
2022/01/21 00:13:41;;;;;;;11.98;2.97;;;;;;;-0.73;93.00;103315.56;5031145;28;20026;-77
2022/01/21 00:16:11;;;;;;;8.02;1.98;;;;;;;-0.73;92.79;103323.56;5023823;28;20036;-76
2022/01/21 00:18:39;;;;;;;5.40;1.67;;;;;;;-0.74;93.21;103328.91;5021128;28;20135;-78
2022/01/21 00:32:04;;;;;;;14.32;2.75;;;;;;;-0.66;92.98;103330.78;5019503;28;20079;-76
2022/01/21 00:34:29;;;;;;;9.82;2.15;;;;;;;-0.67;93.32;103331.66;5028906;28;20036;-77
2022/01/21 00:36:54;;;;;;;16.48;2.70;;;;;;;-0.69;93.11;103325.41;5017451;28;20029;-80
2022/01/21 00:39:23;;;;;;;10.57;2.03;;;;;;;-0.70;93.20;103318.28;5011760;28;20482;-77
2022/01/21 00:42:04;;;;;;;13.07;2.42;;;;;;;-0.71;93.13;103315.56;5008298;28;20021;-79
2022/01/21 00:44:29;;;;;;;11.15;2.65;;;;;;;-0.75;93.05;103325.31;5008707;28;20033;-76
2022/01/21 00:46:54;;;;;;;7.75;2.45;;;;;;;-0.78;93.10;103322.59;5012958;28;20026;-77
2022/01/21 00:49:20;;;;;;;18.25;2.75;;;;;;;-0.82;93.33;103327.00;5026408;28;20089;-78
2022/01/21 00:51:45;;;;;;;11.80;2.40;;;;;;;-0.85;93.19;103323.38;5024673;28;20420;-77
2022/01/21 00:54:10;;;;;;;13.52;3.25;;;;;;;-0.87;93.34;103334.06;5027586;28;20079;-78
2022/01/21 00:56:36;;;;;;;14.25;2.15;;;;;;;-0.88;93.52;103331.38;5020982;28;20029;-76
2022/01/21 00:59:01;;;;;;;15.65;2.55;;;;;;;-0.88;93.62;103334.94;5021610;28;20076;-78
2022/01/21 01:01:27;;;;;;;8.13;1.90;;;;;;;-0.90;93.33;103334.00;5024604;28;20602;-77
2022/01/21 01:03:52;;;;;;;7.47;2.42;;;;;;;-0.92;93.25;103337.53;5026430;28;20025;-76
2022/01/21 01:06:18;;;;;;;12.98;2.10;;;;;;;-0.92;93.29;103343.78;5023847;28;20064;-78
2022/01/21 01:08:43;;;;;;;9.85;1.50;;;;;;;-0.95;93.33;103348.16;5024870;28;20124;-76
2022/01/21 01:21:49;;;;;;;12.95;1.98;;;;;;;-1.11;93.78;103331.00;5022169;28;20059;-75
2022/01/21 01:29:43;;;;;;;12.48;1.83;;;;;;;-1.07;94.11;103323.06;5023249;28;20041;-75
2022/01/21 01:32:09;;;;;;;8.68;1.75;;;;;;;-1.04;94.13;103323.09;5024738;28;20029;-78
2022/01/21 01:34:34;;;;;;;10.30;2.63;;;;;;;-1.03;94.05;103313.31;5026327;28;20097;-78
2022/01/21 01:37:04;;;;;;;6.07;1.60;;;;;;;-1.01;94.38;103314.25;5021362;28;20096;-78
2022/01/21 01:42:53;;;;;;;9.55;1.70;;;;;;;-1.00;94.19;103313.38;5022183;28;20030;-78
2022/01/21 01:50:30;;;;;;;10.20;1.85;;;;;;;-1.00;93.92;103321.38;5022243;28;20116;-74
2022/01/21 01:52:56;;;;;;;9.13;1.55;;;;;;;-0.98;94.21;103324.06;5024755;28;20792;-79
2022/01/21 01:55:22;;;;;;;11.88;1.65;;;;;;;-1.00;94.48;103321.38;5018456;28;20037;-77
2022/01/21 01:57:47;;;;;;;11.10;1.85;;;;;;;-1.01;93.88;103319.59;5022220;28;20017;-78
2022/01/21 02:00:13;;;;;;;6.40;1.60;;;;;;;-1.03;94.08;103318.66;5022775;28;20099;-78
2022/01/21 02:02:38;;;;;;;9.88;2.30;;;;;;;-1.02;93.96;103314.22;5022781;28;20037;-76
2022/01/21 02:05:04;;;;;;;16.65;2.17;;;;;;;-1.04;94.30;103309.75;5019884;28;20030;-76
2022/01/21 02:07:29;;;;;;;11.43;1.73;;;;;;;-1.08;94.32;103310.56;5011435;28;20029;-79
2022/01/21 02:09:54;;;;;;;6.72;1.42;;;;;;;-1.07;94.11;103309.72;5006466;28;20109;-76
2022/01/21 02:12:19;;;;;;;11.70;1.88;;;;;;;-1.04;94.42;103317.75;5025924;28;20087;-76
2022/01/21 02:14:50;;;;;;;8.35;1.67;;;;;;;-1.07;94.22;103325.75;5018125;28;20032;-77
2022/01/21 02:22:41;;;;;;;9.55;2.40;;;;;;;-1.10;94.34;103317.66;5011046;28;20082;-77
2022/01/21 02:25:19;;;;;;;11.57;1.65;;;;;;;-1.11;94.01;103317.66;5022278;28;20120;-76
2022/01/21 02:27:48;;;;;;;10.70;1.48;;;;;;;-1.11;94.15;103315.00;5023518;28;20029;-77
2022/01/21 02:30:19;;;;;;;5.90;1.35;;;;;;;-1.14;94.29;103310.47;5021150;28;20799;-77
2022/01/21 02:32:48;;;;;;;11.43;1.75;;;;;;;-1.12;94.30;103305.16;5025383;28;20064;-76
2022/01/21 02:35:15;;;;;;;12.63;1.65;;;;;;;-1.11;94.49;103315.88;5020856;28;20078;-77
2022/01/21 02:37:41;;;;;;;8.38;2.30;;;;;;;-1.10;94.57;103308.75;5022764;28;20122;-78
2022/01/21 02:40:08;;;;;;;12.02;1.75;;;;;;;-1.10;94.35;103304.31;5023950;28;20021;-78
2022/01/21 02:42:33;;;;;;;5.75;1.45;;;;;;;-1.12;94.54;103302.47;5009565;28;20037;-78
2022/01/21 02:44:59;;;;;;;2.85;1.00;;;;;;;-1.14;94.32;103306.91;5021487;28;20026;-77
2022/01/21 02:47:25;;;;;;;5.75;1.30;;;;;;;-1.16;94.20;103304.22;5020800;28;20037;-76
2022/01/21 02:49:50;;;;;;;10.95;1.90;;;;;;;-1.21;94.01;103308.59;5024380;28;20156;-78
2022/01/21 02:52:18;;;;;;;12.45;2.13;;;;;;;-1.18;94.12;103319.31;5022126;28;20163;-74
2022/01/21 02:54:44;;;;;;;7.60;1.60;;;;;;;-1.19;94.31;103314.84;5021841;28;20386;-76
2022/01/21 02:57:09;;;;;;;10.07;1.48;;;;;;;-1.21;94.40;103315.69;5014940;28;20025;-77
2022/01/21 02:59:36;;;;;;;11.98;1.27;;;;;;;-1.21;94.46;103316.63;5021208;28;20050;-76
2022/01/21 03:02:02;;;;;;;9.65;1.85;;;;;;;-1.24;94.40;103319.22;5011256;28;20029;-76
2022/01/21 03:04:47;;;;;;;9.98;1.75;;;;;;;-1.24;94.45;103321.91;5016094;28;20030;-78
2022/01/21 03:07:12;;;;;;;15.73;1.70;;;;;;;-1.29;94.30;103321.81;5013451;28;20393;-76
2022/01/21 03:09:38;;;;;;;10.75;1.95;;;;;;;-1.24;94.60;103329.00;5016398;28;20030;-75
2022/01/21 03:12:04;;;;;;;11.38;1.35;;;;;;;-1.24;94.63;103327.25;5010178;28;20034;-75
2022/01/21 03:14:29;;;;;;;11.13;1.50;;;;;;;-1.23;94.55;103330.81;5020063;28;20022;-78
2022/01/21 03:16:56;;;;;;;6.57;1.58;;;;;;;-1.23;94.49;103330.81;5012407;28;20029;-75
2022/01/21 03:19:21;;;;;;;10.40;1.88;;;;;;;-1.21;94.62;103329.03;5026429;28;20025;-74
2022/01/21 03:21:47;;;;;;;11.68;1.67;;;;;;;-1.21;94.76;103321.97;5023938;28;20488;-74
2022/01/21 03:24:12;;;;;;;7.03;1.60;;;;;;;-1.18;94.53;103329.09;5028093;28;20025;-77
2022/01/21 03:26:37;;;;;;;5.47;1.20;;;;;;;-1.21;94.81;103319.28;5011893;28;20029;-77
2022/01/21 03:29:04;;;;;;;9.63;1.48;;;;;;;-1.18;94.80;103337.13;5026852;28;20083;-76
2022/01/21 03:31:31;;;;;;;4.15;1.10;;;;;;;-1.21;94.87;103334.38;5026563;28;20113;-75
2022/01/21 03:33:59;;;;;;;11.85;2.08;;;;;;;-1.19;95.12;103343.34;5027138;28;20013;-75
2022/01/21 03:36:26;;;;;;;7.88;2.00;;;;;;;-1.21;94.64;103345.06;5024227;28;20025;-75
2022/01/21 03:38:51;;;;;;;9.95;1.98;;;;;;;-1.23;94.86;103341.47;5030590;28;20393;-77
2022/01/21 03:41:16;;;;;;;11.85;1.42;;;;;;;-1.24;95.02;103350.38;5028160;28;20026;-75
2022/01/21 03:43:41;;;;;;;8.88;1.73;;;;;;;-1.24;95.02;103350.38;5030986;28;20425;-74
2022/01/21 03:46:07;;;;;;;6.63;1.73;;;;;;;-1.27;94.99;103343.19;5013838;28;20394;-77
2022/01/21 03:48:33;;;;;;;7.43;1.77;;;;;;;-1.24;95.27;103331.69;5026241;28;20029;-75
2022/01/21 03:50:59;;;;;;;12.15;1.95;;;;;;;-1.21;95.10;103345.06;5024701;28;20380;-78
2022/01/21 03:53:24;;;;;;;11.63;2.03;;;;;;;-1.22;95.69;103335.25;5029377;28;20021;-77
2022/01/21 03:55:50;;;;;;;7.82;1.60;;;;;;;-1.20;95.34;103339.78;5018951;28;20030;-75
2022/01/21 03:58:16;;;;;;;10.65;1.83;;;;;;;-1.22;95.61;103345.94;5027932;28;20049;-76
2022/01/21 04:00:48;;;;;;;8.80;1.42;;;;;;;-1.22;95.34;103345.94;5024190;28;20032;-75
2022/01/21 04:03:14;;;;;;;9.55;1.60;;;;;;;-1.23;95.71;103341.47;5028035;28;20037;-76
2022/01/21 04:05:39;;;;;;;6.68;1.63;;;;;;;-1.27;95.54;103343.19;5021487;28;20021;-79
2022/01/21 04:08:06;;;;;;;5.47;1.38;;;;;;;-1.27;95.14;103335.19;5019068;28;20040;-76
2022/01/21 04:10:32;;;;;;;4.88;1.52;;;;;;;-1.26;95.45;103342.31;5023204;28;20037;-77
2022/01/21 04:12:57;;;;;;;13.27;1.55;;;;;;;-1.27;95.30;103343.19;5022073;28;20017;-75
2022/01/21 04:15:23;;;;;;;8.18;1.27;;;;;;;-1.26;95.84;103333.41;5017745;28;20061;-76
2022/01/21 04:17:48;;;;;;;9.73;1.65;;;;;;;-1.26;95.83;103336.97;5035818;28;20052;-78
2022/01/21 04:20:14;;;;;;;4.63;1.77;;;;;;;-1.21;96.30;103335.31;5026464;28;20026;-76
2022/01/21 04:22:40;;;;;;;8.10;1.92;;;;;;;-1.22;95.94;103330.81;5030032;28;20543;-76
2022/01/21 04:25:06;;;;;;;6.63;1.67;;;;;;;-1.27;95.69;103323.59;5028027;28;20040;-76
2022/01/21 04:27:32;;;;;;;8.50;1.77;;;;;;;-1.23;95.87;103338.81;5028054;28;20017;-75
2022/01/21 04:29:57;;;;;;;5.60;1.45;;;;;;;-1.26;95.95;103328.97;5024557;28;20036;-76
2022/01/21 04:32:22;;;;;;;7.80;1.27;;;;;;;-1.27;96.17;103332.50;5027094;28;20386;-77
2022/01/21 04:34:48;;;;;;;7.30;3.00;;;;;;;-1.26;96.39;103333.41;5025928;28;20086;-79
2022/01/21 04:37:15;;;;;;;6.03;1.20;;;;;;;-1.24;95.99;103327.25;5024624;28;20063;-79
2022/01/21 04:39:48;;;;;;;7.18;1.70;;;;;;;-1.24;96.01;103337.03;5017922;28;20034;-76
2022/01/21 04:47:32;;;;;;;15.30;1.70;;;;;;;-1.24;96.56;103337.91;5012425;28;20163;-76
2022/01/21 04:49:57;;;;;;;8.10;1.38;;;;;;;-1.24;96.26;103350.38;5025622;28;20127;-76
2022/01/21 04:52:23;;;;;;;9.52;1.42;;;;;;;-1.26;96.13;103342.31;5024780;28;20033;-75
2022/01/21 04:54:49;;;;;;;10.88;1.75;;;;;;;-1.28;96.12;103338.75;5029189;28;20056;-76
2022/01/21 04:57:15;;;;;;;9.73;1.65;;;;;;;-1.30;95.96;103343.16;5023043;28;20025;-75
2022/01/21 04:59:41;;;;;;;7.05;1.65;;;;;;;-1.33;96.08;103332.44;5024824;28;20061;-75
2022/01/21 05:02:07;;;;;;;12.25;1.92;;;;;;;-1.34;96.04;103334.19;5021047;28;20025;-79
2022/01/21 05:04:33;;;;;;;4.00;1.40;;;;;;;-1.36;95.72;103330.59;5026484;28;20033;-79
2022/01/21 05:06:58;;;;;;;8.00;1.88;;;;;;;-1.39;96.21;103316.31;5019009;28;20116;-78
2022/01/21 05:09:30;;;;;;;4.05;1.30;;;;;;;-1.37;96.26;103323.47;5026728;28;20033;-76
2022/01/21 05:11:57;;;;;;;5.95;1.52;;;;;;;-1.38;96.29;103319.00;5014262;28;20637;-78
2022/01/21 05:14:28;;;;;;;3.72;1.10;;;;;;;-1.37;96.49;103317.22;5025942;28;20572;-76
2022/01/21 05:17:02;;;;;;;8.93;1.27;;;;;;;-1.26;96.85;103323.63;5015217;28;20104;-76
2022/01/21 05:19:27;;;;;;;8.32;1.40;;;;;;;-1.25;96.63;103316.53;5029029;28;20473;-75
2022/01/21 05:21:52;;;;;;;6.60;1.10;;;;;;;-1.22;96.40;103328.16;5026820;28;20021;-75
2022/01/21 05:24:20;;;;;;;9.00;1.33;;;;;;;-1.25;96.50;103328.13;5023515;28;20433;-75
2022/01/21 05:26:54;;;;;;;10.57;1.58;;;;;;;-1.23;96.74;103322.78;5026302;28;20036;-76
2022/01/21 05:29:21;;;;;;;9.75;1.40;;;;;;;-1.24;96.58;103326.34;5024032;28;20025;-75
2022/01/21 05:31:47;;;;;;;5.90;1.25;;;;;;;-1.24;96.70;103327.25;5012976;28;20109;-77
2022/01/21 05:34:12;;;;;;;6.28;1.35;;;;;;;-1.20;96.88;103328.19;5027229;28;20592;-78
2022/01/21 05:36:40;;;;;;;13.65;1.40;;;;;;;-1.17;97.09;103333.56;5028424;28;20167;-79
2022/01/21 05:39:07;;;;;;;4.70;1.65;;;;;;;-1.19;97.25;103341.56;5028537;28;20477;-76
2022/01/21 05:41:33;;;;;;;8.88;1.70;;;;;;;-1.20;97.21;103330.88;5019200;28;20072;-78
2022/01/21 05:44:05;;;;;;;9.20;1.38;;;;;;;-1.16;96.97;103332.72;5019035;28;20194;-78
2022/01/21 05:47:16;;;;;;;13.52;2.42;;;;;;;-1.19;96.68;103325.53;5010591;28;20127;-75
2022/01/21 05:49:16;;;;;;;9.18;1.73;;;;;;;-1.19;96.60;103330.88;5034413;28;20040;-78
2022/01/21 05:51:42;;;;;;;9.38;2.47;;;;;;;-1.17;97.14;103334.47;5023608;28;20575;-75
2022/01/21 05:54:08;;;;;;;13.68;1.80;;;;;;;-1.18;96.78;103331.78;5016270;28;20029;-76
2022/01/21 05:56:35;;;;;;;5.75;1.33;;;;;;;-1.21;96.57;103329.97;5013274;28;20033;-76
2022/01/21 05:59:01;;;;;;;3.90;1.45;;;;;;;-1.21;96.69;103335.31;5016708;28;20861;-75
2022/01/21 06:01:27;;;;;;;10.20;1.42;;;;;;;-1.29;96.27;103332.50;5014885;28;20033;-76
2022/01/21 06:03:53;;;;;;;7.43;1.42;;;;;;;-1.31;96.37;103344.94;5016182;28;20029;-75
2022/01/21 06:06:18;;;;;;;10.48;1.48;;;;;;;-1.32;96.53;103351.13;5009726;28;20029;-79
2022/01/21 06:08:43;;;;;;;5.15;1.52;;;;;;;-1.34;96.52;103343.97;5011349;28;20112;-75
2022/01/21 06:11:09;;;;;;;4.53;1.50;;;;;;;-1.34;96.84;103342.22;5016857;28;20037;-77
2022/01/21 06:13:35;;;;;;;6.38;1.48;;;;;;;-1.38;96.82;103335.00;5017328;28;20043;-76
2022/01/21 06:16:00;;;;;;;4.50;1.23;;;;;;;-1.33;96.94;103351.13;5021173;28;20029;-76
2022/01/21 06:18:26;;;;;;;6.32;1.63;;;;;;;-1.34;96.81;103346.66;5008563;28;20029;-75
2022/01/21 06:20:52;;;;;;;9.60;2.45;;;;;;;-1.31;97.01;103354.69;5011983;28;20034;-78
2022/01/21 06:23:18;;;;;;;7.90;1.77;;;;;;;-1.32;96.99;103364.47;5006740;28;20393;-78
2022/01/21 06:25:43;;;;;;;14.32;2.35;;;;;;;-1.34;97.11;103350.22;5006741;28;20026;-77
2022/01/21 06:28:08;;;;;;;10.50;1.77;;;;;;;-1.35;96.81;103360.88;5007966;28;20503;-77
2022/01/21 06:30:34;;;;;;;3.88;1.77;;;;;;;-1.34;96.75;103363.56;5004763;28;20902;-77
2022/01/21 06:32:59;;;;;;;8.27;1.60;;;;;;;-1.36;96.48;103365.28;5005914;28;20061;-77
2022/01/21 06:35:25;;;;;;;13.93;2.25;;;;;;;-1.32;96.39;103377.84;5005558;28;20067;-77
2022/01/21 06:37:50;;;;;;;5.85;1.83;;;;;;;-1.29;96.83;103377.00;5012616;28;20033;-78
2022/01/21 06:40:19;;;;;;;10.80;2.20;;;;;;;-1.19;97.53;103380.72;5017522;28;20029;-78
2022/01/21 06:42:46;;;;;;;8.38;2.38;;;;;;;-1.08;97.66;103393.38;5018530;28;20044;-78
2022/01/21 06:45:11;;;;;;;13.95;3.03;;;;;;;-0.98;97.61;103388.19;5020757;28;20520;-77
2022/01/21 06:47:36;;;;;;;3.75;1.98;;;;;;;-0.92;97.86;103399.88;5017693;28;20022;-76
2022/01/21 06:50:02;;;;;;;6.53;2.50;;;;;;;-0.91;97.49;103388.31;5021003;28;20041;-77
2022/01/21 06:52:29;;;;;;;10.38;2.95;;;;;;;-0.86;97.74;103391.97;5025247;28;20452;-77
2022/01/21 06:54:54;;;;;;;10.25;2.80;;;;;;;-0.86;97.48;103386.63;5006234;28;20036;-77
2022/01/21 06:57:20;;;;;;;12.68;3.38;;;;;;;-0.81;97.56;103394.69;5007168;28;20579;-78
2022/01/21 06:59:45;;;;;;;13.55;3.40;;;;;;;-0.79;97.59;103395.66;5006083;28;20050;-75
2022/01/21 07:02:10;;;;;;;9.43;3.00;;;;;;;-0.78;97.33;103392.09;5005498;28;20036;-78
2022/01/21 07:04:35;;;;;;;12.65;3.17;;;;;;;-0.78;97.41;103397.44;5005828;28;20119;-77
2022/01/21 07:07:01;;;;;;;11.52;2.90;;;;;;;-0.77;97.53;103404.56;5005984;28;20026;-77
2022/01/21 07:09:27;;;;;;;6.72;3.40;;;;;;;-0.72;97.41;103416.22;5017369;28;20091;-76
2022/01/21 07:11:53;;;;;;;12.80;4.30;;;;;;;-0.70;97.52;103419.84;5011973;28;20440;-74
2022/01/21 07:14:20;;;;;;;14.55;4.07;;;;;;;-0.67;97.50;103419.88;5027301;28;20031;-76
2022/01/21 07:16:46;;;;;;;11.57;4.07;;;;;;;-0.63;97.51;103416.38;5029018;28;20150;-77
2022/01/21 07:19:11;;;;;;;10.93;4.88;;;;;;;-0.58;97.67;103416.44;5021904;28;20505;-76
2022/01/21 07:21:36;;;;;;;16.15;5.63;;;;;;;-0.55;97.57;103416.50;5027375;28;20029;-77
2022/01/21 07:24:02;;;;;;;15.20;5.55;;;;;;;-0.50;97.46;103421.91;5011861;28;20025;-77
2022/01/21 07:26:27;;;;;;;12.80;5.53;;;;;;;-0.47;97.59;103411.25;5018019;28;20033;-76
2022/01/21 07:28:53;;;;;;;10.45;5.60;;;;;;;-0.43;97.51;103423.78;5028174;28;20382;-76
2022/01/21 07:31:18;;;;;;;15.80;6.35;;;;;;;-0.44;97.13;103424.66;5026340;28;20075;-76
2022/01/21 07:33:43;;;;;;;12.57;4.50;;;;;;;-0.45;97.18;103441.59;5029945;28;20376;-75
2022/01/21 07:36:09;;;;;;;13.18;5.70;;;;;;;-0.47;97.48;103441.56;5029003;28;20037;-77
2022/01/21 07:38:34;;;;;;;12.48;5.50;;;;;;;-0.46;97.18;103443.38;5021789;28;20033;-77
2022/01/21 07:40:59;;;;;;;18.02;6.47;;;;;;;-0.41;97.75;103443.44;5009358;28;20056;-76
2022/01/21 07:43:24;;;;;;;13.00;5.80;;;;;;;-0.34;97.93;103437.28;5022005;28;20416;-77
2022/01/21 07:45:50;;;;;;;11.48;5.18;;;;;;;-0.33;97.46;103436.41;5024737;28;20037;-77
2022/01/21 07:48:15;;;;;;;13.00;6.47;;;;;;;-0.29;96.80;103427.56;5029701;28;20035;-77
2022/01/21 07:50:40;;;;;;;17.55;5.95;;;;;;;-0.25;97.29;103434.75;5030810;28;20040;-77
2022/01/21 07:53:06;;;;;;;21.73;6.55;;;;;;;-0.24;97.31;103432.97;5026346;28;20055;-77
2022/01/21 07:55:31;;;;;;;17.45;5.60;;;;;;;-0.21;97.29;103430.34;5022036;28;20030;-77
2022/01/21 07:57:57;;;;;;;14.80;5.78;;;;;;;-0.17;97.27;103437.53;5019532;28;20072;-75
2022/01/21 08:00:23;;;;;;;11.90;6.45;;;;;;;-0.11;97.38;103427.81;5014216;28;20393;-77
2022/01/21 08:02:48;;;;;;;18.63;5.82;;;;;;;-0.09;97.49;103414.47;5017490;28;20077;-76
2022/01/21 08:05:14;;;;;;;9.57;6.13;;;;;;;-0.07;97.59;103408.25;5009537;28;20066;-77
2022/01/21 08:07:39;;;;;;;14.48;6.40;;;;;;;-0.08;97.42;103405.56;5008182;28;20018;-76
2022/01/21 08:10:05;;;;;;;10.77;5.80;;;;;;;-0.07;97.15;103410.03;5008309;28;20788;-76
2022/01/21 08:12:31;;;;;;;12.13;6.35;;;;;;;-0.05;97.14;103408.25;5010871;28;20034;-76
2022/01/21 08:14:56;;;;;;;17.30;6.93;;;;;;;-0.02;97.22;103409.19;5008632;28;20025;-76
2022/01/21 08:17:22;;;;;;;14.57;6.15;;;;;;;0.01;97.18;103402.13;5009117;28;20477;-75
2022/01/21 08:19:47;;;;;;;18.25;7.97;;;;;;;0.03;97.19;103405.69;5009103;28;20026;-78
2022/01/21 08:22:13;;;;;;;13.50;5.95;;;;;;;0.01;96.98;103399.44;5016506;28;20029;-77
2022/01/21 08:24:38;;;;;;;9.45;5.65;;;;;;;0.05;97.06;103398.56;5017843;28;20025;-77
2022/01/21 08:27:04;;;;;;;14.90;5.38;;;;;;;0.04;96.84;103395.00;5011268;28;20051;-77
2022/01/21 08:29:29;;;;;;;10.75;5.38;;;;;;;-0.01;96.92;103389.59;5009760;28;20112;-77
2022/01/21 08:31:54;;;;;;;18.40;6.13;;;;;;;-0.07;97.01;103384.16;5023968;28;20030;-76
2022/01/21 08:34:20;;;;;;;20.63;5.97;;;;;;;0.01;96.85;103402.13;5009912;28;20508;-78
2022/01/21 08:36:46;;;;;;;11.60;5.00;;;;;;;-0.01;96.84;103408.31;5008832;28;20037;-78
2022/01/21 08:39:13;;;;;;;9.15;4.55;;;;;;;-0.01;96.80;103421.69;5008640;28;20048;-76
2022/01/21 08:41:38;;;;;;;12.50;4.88;;;;;;;-0.01;96.59;103415.44;5009497;28;20022;-77
2022/01/21 08:44:04;;;;;;;15.07;5.20;;;;;;;-0.01;96.76;103412.78;5008360;28;20033;-76
2022/01/21 08:46:30;;;;;;;11.02;4.85;;;;;;;0.03;96.93;103409.25;5008508;28;20494;-79
2022/01/21 08:48:55;;;;;;;10.52;5.15;;;;;;;0.07;97.05;103410.22;5008707;28;20239;-77
2022/01/21 08:51:29;;;;;;;12.40;4.68;;;;;;;0.10;97.01;103410.25;5008030;28;20112;-78
2022/01/21 08:53:54;;;;;;;7.60;4.57;;;;;;;0.13;97.10;103416.53;5008494;28;20029;-78
2022/01/21 08:56:21;;;;;;;8.90;4.90;;;;;;;0.19;97.08;103430.00;5008018;28;20037;-79
2022/01/21 08:58:48;;;;;;;12.68;5.32;;;;;;;0.21;97.16;103425.56;5019747;28;20100;-77
2022/01/21 09:01:15;;;;;;;13.65;5.90;;;;;;;0.28;97.14;103428.28;5012931;28;20034;-79
2022/01/21 09:03:42;;;;;;;14.43;5.60;;;;;;;0.33;97.11;103429.28;5009307;28;20389;-76
2022/01/21 09:06:08;;;;;;;10.88;5.15;;;;;;;0.37;96.98;103415.00;5008597;28;20452;-76
2022/01/21 09:08:34;;;;;;;10.45;5.22;;;;;;;0.41;97.06;103415.06;5011075;28;20029;-77
2022/01/21 09:11:02;;;;;;;10.68;5.35;;;;;;;0.45;96.82;103391.91;5010857;28;20529;-77
2022/01/21 09:13:30;;;;;;;9.07;5.15;;;;;;;0.46;97.18;103382.97;5017856;28;20029;-75
2022/01/21 09:15:59;;;;;;;10.35;4.53;;;;;;;0.53;97.01;103386.63;5021039;28;20053;-79
2022/01/21 09:18:33;;;;;;;15.00;4.50;;;;;;;0.59;96.96;103382.22;5019817;28;20029;-76
2022/01/21 09:20:58;;;;;;;18.80;4.93;;;;;;;0.67;97.02;103376.94;5007513;28;20034;-79
2022/01/21 09:23:24;;;;;;;13.98;5.05;;;;;;;0.73;96.57;103379.69;5008466;28;20037;-78
2022/01/21 09:25:49;;;;;;;10.27;4.13;;;;;;;0.80;96.90;103378.88;5007123;28;20030;-77
2022/01/21 09:28:14;;;;;;;8.52;5.50;;;;;;;0.87;96.74;103386.06;5007645;28;20030;-79
2022/01/21 09:30:39;;;;;;;12.65;5.43;;;;;;;0.97;96.69;103389.72;5015040;28;20057;-78
2022/01/21 09:33:05;;;;;;;18.75;5.93;;;;;;;1.04;96.64;103390.69;5008502;28;20233;-76
2022/01/21 09:35:30;;;;;;;9.30;5.00;;;;;;;1.07;96.76;103391.56;5006362;28;20257;-78
2022/01/21 09:37:55;;;;;;;13.60;4.82;;;;;;;1.14;96.71;103396.13;5006617;28;20037;-78
2022/01/21 09:40:30;;;;;;;10.25;4.55;;;;;;;1.22;96.49;103397.06;5022658;28;20063;-75
2022/01/21 09:42:56;;;;;;;12.45;5.10;;;;;;;1.30;96.40;103402.47;5007791;28;20030;-76
2022/01/21 09:45:24;;;;;;;11.85;4.72;;;;;;;1.35;96.30;103395.34;5007322;28;20077;-74
2022/01/21 09:47:52;;;;;;;10.57;3.50;;;;;;;1.47;96.26;103407.97;5007861;28;20474;-79
2022/01/21 09:50:20;;;;;;;13.93;4.82;;;;;;;1.56;96.47;103405.34;5012681;28;20044;-76
2022/01/21 09:52:50;;;;;;;9.70;4.40;;;;;;;1.59;96.31;103402.69;5009180;28;20029;-74
2022/01/21 09:55:21;;;;;;;12.65;4.38;;;;;;;1.70;96.03;103422.41;5006813;28;20036;-76
2022/01/21 09:57:49;;;;;;;16.30;4.63;;;;;;;1.76;95.69;103413.50;5007405;28;20496;-74
2022/01/21 10:00:17;;;;;;;15.80;6.00;;;;;;;1.86;95.62;103426.06;5011717;28;20090;-75
2022/01/21 10:02:43;;;;;;;15.25;6.10;;;;;;;1.94;95.44;103427.03;5010082;28;20113;-75
2022/01/21 10:05:09;;;;;;;19.45;6.28;;;;;;;2.03;95.94;103431.53;5008129;28;20022;-75
2022/01/21 10:07:35;;;;;;;14.18;5.63;;;;;;;2.07;95.47;103422.63;5007063;28;20041;-75
2022/01/21 10:10:07;;;;;;;16.67;6.32;;;;;;;2.14;95.36;103434.25;5007221;28;20039;-78
2022/01/21 10:12:33;;;;;;;23.67;5.40;;;;;;;2.20;94.98;103437.88;5014629;28;20018;-79
2022/01/21 10:14:58;;;;;;;14.98;4.90;;;;;;;2.30;94.41;103452.25;5016948;28;20393;-80
2022/01/21 10:17:23;;;;;;;11.32;4.18;;;;;;;2.39;94.73;103448.72;5027438;28;20112;-75
2022/01/21 10:19:52;;;;;;;10.88;3.75;;;;;;;2.48;95.12;103446.94;5027764;28;20025;-79
2022/01/21 10:22:26;;;;;;;11.50;4.30;;;;;;;2.67;96.45;103447.88;5027121;28;20018;-75
2022/01/21 10:24:57;;;;;;;8.40;3.92;;;;;;;2.75;94.70;103451.50;5024789;28;20102;-80
2022/01/21 10:27:24;;;;;;;12.77;3.20;;;;;;;2.75;94.02;103446.13;5011830;28;20525;-76
2022/01/21 10:29:50;;;;;;;13.13;4.22;;;;;;;2.77;93.92;103452.38;5015147;28;20036;-80
2022/01/21 10:32:15;;;;;;;13.88;3.15;;;;;;;2.90;94.03;103463.16;5025543;28;20284;-76
2022/01/21 10:34:44;;;;;;;11.10;3.60;;;;;;;3.04;93.89;103458.72;5026307;28;20377;-79
2022/01/21 10:37:26;;;;;;;12.23;3.55;;;;;;;3.29;95.06;103454.22;5023123;28;20037;-79
2022/01/21 10:40:06;;;;;;;10.10;3.25;;;;;;;3.51;94.31;103450.63;5021257;28;20512;-75
2022/01/21 10:42:32;;;;;;;13.05;3.05;;;;;;;3.72;92.85;103462.25;5009323;28;20025;-79
2022/01/21 10:44:58;;;;;;;13.00;2.40;;;;;;;3.92;92.06;103464.91;5019602;28;20367;-80
2022/01/21 10:47:31;;;;;;;6.72;2.47;;;;;;;4.04;91.54;103460.38;5020933;28;20033;-79
2022/01/21 10:50:01;;;;;;;5.72;2.05;;;;;;;4.12;91.30;103463.06;5024201;28;20033;-76
2022/01/21 10:52:32;;;;;;;7.97;2.40;;;;;;;4.21;90.95;103463.03;5012328;28;20472;-76
2022/01/21 10:54:57;;;;;;;10.75;3.10;;;;;;;4.33;90.20;103456.66;5018057;28;20048;-75
2022/01/21 10:57:22;;;;;;;8.23;2.20;;;;;;;4.48;90.50;103455.72;5019850;28;20389;-76
2022/01/21 10:59:49;;;;;;;13.13;2.47;;;;;;;4.63;90.04;103449.34;5009660;28;20042;-75
2022/01/21 11:02:27;;;;;;;9.43;3.00;;;;;;;4.67;89.82;103446.63;5026137;28;20029;-79
2022/01/21 11:04:52;;;;;;;12.50;2.83;;;;;;;4.66;89.80;103438.53;5026578;28;20052;-79
2022/01/21 11:07:46;;;;;;;14.57;2.47;;;;;;;4.63;91.06;103436.75;5020302;28;20068;-75
2022/01/21 11:10:37;;;;;;;13.90;2.70;;;;;;;4.65;91.13;103434.03;5009871;28;20026;-75
2022/01/21 11:13:12;;;;;;;6.93;2.55;;;;;;;4.74;91.15;103421.41;5016969;28;20061;-77
2022/01/21 11:15:39;;;;;;;10.23;2.15;;;;;;;4.86;91.05;103425.81;5013897;28;20033;-77
2022/01/21 11:18:06;;;;;;;20.23;3.78;;;;;;;4.99;91.53;103415.81;5026821;28;20036;-75
2022/01/21 11:20:37;;;;;;;9.48;3.10;;;;;;;5.05;90.38;103399.59;5026990;28;20025;-75
2022/01/21 11:23:02;;;;;;;16.88;2.97;;;;;;;5.12;90.84;103402.22;5017769;28;20025;-75
2022/01/21 11:25:58;;;;;;;8.63;2.83;;;;;;;5.23;90.90;103403.97;5020041;28;20536;-76
2022/01/21 11:28:49;;;;;;;11.20;2.90;;;;;;;5.31;90.63;103400.25;5012628;28;20053;-76
2022/01/21 11:31:22;;;;;;;14.48;2.60;;;;;;;5.35;89.07;103383.13;5019274;28;20053;-76
2022/01/21 11:33:47;;;;;;;12.38;3.22;;;;;;;5.40;89.57;103390.28;5014364;28;20058;-76
2022/01/21 11:36:13;;;;;;;14.75;2.80;;;;;;;5.38;88.82;103387.59;5024447;28;20493;-77
2022/01/21 11:38:43;;;;;;;17.90;4.05;;;;;;;5.37;88.90;103394.81;5019219;28;20040;-76
2022/01/21 11:41:09;;;;;;;12.13;2.72;;;;;;;5.36;88.74;103393.03;5018210;28;20171;-77
2022/01/21 11:43:37;;;;;;;16.77;3.00;;;;;;;5.37;89.73;103402.03;5015361;28;20033;-75
2022/01/21 11:46:20;;;;;;;15.82;3.08;;;;;;;5.40;89.17;103399.28;5017518;28;20471;-77
2022/01/21 11:48:51;;;;;;;;;;;;;;;5.45;90.81;103385.72;5024710;28;20044;-76
2022/01/21 11:51:31;;;;;;;12.13;2.92;;;;;;;5.47;89.69;103378.53;5010126;28;19924;-76
2022/01/21 11:54:03;;;;;;;12.43;2.47;;;;;;;5.45;88.43;103383.03;5016669;28;20482;-76
2022/01/21 11:56:49;;;;;;;6.25;2.35;;;;;;;5.46;88.86;103377.63;5011337;28;20021;-77
2022/01/21 11:59:23;;;;;;;9.48;2.58;;;;;;;5.45;89.06;103378.50;5021546;28;20095;-75
2022/01/21 12:01:48;;;;;;;14.15;2.95;;;;;;;5.50;88.14;103379.41;5026720;28;20397;-77
2022/01/21 12:04:38;;;;;;;19.98;3.20;;;;;;;5.60;89.01;103381.09;5028105;28;20051;-77
2022/01/21 12:07:24;;;;;;;17.88;3.55;;;;;;;5.68;87.70;103382.78;5037153;28;20037;-75
2022/01/21 12:10:20;;;;;;;13.68;2.67;;;;;;;5.73;87.14;103371.00;5014267;28;20041;-77
2022/01/21 12:12:45;;;;;;;12.07;3.83;;;;;;;5.75;87.13;103369.19;5013556;28;20060;-76